Log in

Healthcare Realty Trust Institutional Ownership (NYSE:HR)

$34.03
+0.12 (+0.35 %)
(As of 10/18/2019 04:00 PM ET)
Today's Range
$33.81
Now: $34.03
$34.15
50-Day Range
$32.43
MA: $33.42
$34.22
52-Week Range
$27.04
Now: $34.03
$34.39
Volume493,451 shs
Average Volume689,860 shs
Market Capitalization$4.40 billion
P/E Ratio21.68
Dividend Yield3.54%
Beta0.31

Institutional Ownership

Institutional Ownership Changes (13F Filings) for Healthcare Realty Trust (NYSE:HR)

Institutional Ownership Percentage: 96.64%

Healthcare Realty Trust (NYSE HR) Institutional Buying and Selling

Reporting DateHedge FundShares HeldMarket Value% of PortfolioQuarterly Change in SharesOwnership in Company
10/18/2019NJ State Employees Deferred Compensation Plan7,800$0.26M0.0%N/A0.006%
10/18/2019Zurcher Kantonalbank Zurich Cantonalbank 34,268$1.15M0.0%+3.6%0.027%
10/17/2019Envestnet Asset Management Inc.44,611$1.49M0.0%+76.6%0.035%
10/17/2019Nisa Investment Advisors LLC110,682$3.71M0.0%+30.4%0.086%
10/15/2019Resolution Capital Ltd3,085,572$103.37M3.0%-4.0%2.387%
10/15/2019Gateway Investment Advisers LLC350,187$11.73M0.1%-0.3%0.271%
10/15/2019Fox Run Management L.L.C.7,607$0.26M0.1%-22.9%0.006%
10/10/2019Pacer Advisors Inc.46,238$1.55M0.0%-7.2%0.036%
10/10/2019Perpetual Ltd127,211$4.26M0.7%-6.1%0.098%
10/10/2019Manning & Napier Group LLC191,575$6.42M0.1%-1.8%0.148%
10/8/2019Scout Investments Inc.773,104$25.90M0.5%-3.8%0.598%
10/2/2019State of Alaska Department of Revenue33,536$1.12M0.0%-32.6%0.026%
9/24/2019Macquarie Group Ltd.47,500$1.49M0.0%-95.2%0.037%
8/23/2019BlackRock Inc.18,435,111$577.39M0.0%+0.5%14.264%
8/19/2019Chartwell Investment Partners LLC502,320$15.73M0.5%-4.3%0.389%
8/17/2019Royal Bank of Canada26,308$0.82M0.0%+59.6%0.020%
8/17/2019Ladenburg Thalmann Financial Services Inc.3,362$0.11M0.0%-9.0%0.003%
8/16/2019Eaton Vance Management665,394$20.84M0.0%+46.3%0.515%
8/16/2019Amundi Pioneer Asset Management Inc.60,978$1.91M0.0%-22.4%0.047%
8/16/2019Susquehanna International Group LLP45,218$1.42M0.0%N/A0.035%
8/15/2019Pictet Asset Management Ltd.23,800$0.75M0.0%+12.3%0.018%
8/15/2019Nuveen Asset Management LLC2,380,319$74.55M0.0%+2.2%1.842%
8/15/2019Price T Rowe Associates Inc. MD9,117,172$285.55M0.0%+5.5%7.054%
8/15/2019Victory Capital Management Inc.2,430,290$76.12M0.2%-1.5%1.880%
8/15/2019UBS Asset Management Americas Inc.432,825$13.56M0.0%-5.1%0.335%
8/14/2019Citadel Advisors LLC17,011$0.53M0.0%-86.0%0.013%
8/14/2019Point72 Hong Kong Ltd5,618$0.18M0.0%N/A0.004%
8/14/2019Cubist Systematic Strategies LLC8,715$0.27M0.0%-84.5%0.007%
8/14/2019Morgan Stanley3,987,529$124.89M0.0%-10.1%3.085%
8/14/2019AQR Capital Management LLC46,602$1.46M0.0%+3.9%0.036%
8/14/2019Bank of America Corp DE461,044$14.44M0.0%+11.6%0.357%
8/14/2019Sandler Capital Management315,289$9.88M0.7%-1.5%0.244%
8/14/2019Invesco Ltd.9,041,927$283.19M0.1%-1.3%6.996%
8/14/2019Vanguard Group Inc.18,807,903$589.06M0.0%+0.4%14.552%
8/14/2019AMP Capital Investors Ltd48,811$1.52M0.0%-2.6%0.038%
8/14/2019Asset Management One Co. Ltd.340,674$10.67M0.1%+7.6%0.264%
8/13/2019Armor Investment Advisors LLC26,011$0.82M0.7%-5.4%0.020%
8/13/2019Tower Research Capital LLC TRC9,978$0.31M0.0%+95.3%0.008%
8/13/2019BlackRock Inc.18,435,111$577.39M0.0%+0.5%14.264%
8/13/2019Nomura Asset Management Co. Ltd.82,670$2.59M0.0%+4.4%0.064%
8/13/2019US Bancorp DE27,439$0.86M0.0%-3.4%0.021%
8/13/2019Profund Advisors LLC21,876$0.69M0.0%+7.4%0.017%
8/13/2019Providence Capital Advisors LLC40,685$1.27M0.8%+2.6%0.031%
8/13/2019Teachers Insurance & Annuity Association of America46,109$1.44M0.2%-59.8%0.036%
8/13/2019Parametric Portfolio Associates LLC235,390$7.37M0.0%-0.5%0.182%
8/13/2019Pictet Asset Management Ltd.23,800$0.75M0.0%+12.3%0.018%
8/13/2019Northern Trust Corp3,366,053$105.43M0.0%+3.2%2.604%
8/13/2019Carlson Capital L P499,035$15.63M0.2%+21.7%0.386%
8/12/2019Public Employees Retirement System of Ohio138,985$4.35M0.0%+1.5%0.108%
8/12/2019Pacer Advisors Inc.49,845$1.56M0.0%N/A0.039%
8/12/2019Nuance Investments LLC294,854$9.24M0.4%+27.7%0.228%
8/12/2019Bank of New York Mellon Corp2,156,928$67.56M0.0%+12.3%1.669%
8/12/2019Keeley Teton Advisors LLC39,900$1.25M0.1%+16.2%0.031%
8/10/2019Charles Schwab Investment Management Inc.2,282,936$71.50M0.0%+4.8%1.766%
8/9/2019William Blair Investment Management LLC854,696$26.77M0.1%+9.6%0.661%
8/9/2019Bank of Montreal Can19,676$0.62M0.0%+43.8%0.015%
8/9/2019Panagora Asset Management Inc.9,128$0.29M0.0%+21.8%0.007%
8/9/2019Russell Investments Group Ltd.277,414$8.68M0.0%+17.6%0.215%
8/9/2019Prudential Financial Inc.87,916$2.75M0.0%+10.2%0.068%
8/9/2019Schroder Investment Management Group1,019,615$31.94M0.0%-16.0%0.789%
8/8/2019Mizuho Securities USA LLC10,000$0.31M0.0%N/A0.008%
8/8/2019Carillon Tower Advisers Inc.553,200$17.33M0.1%-15.0%0.428%
8/8/2019Mitsubishi UFJ Kokusai Asset Management Co. Ltd.25,727$0.81M0.0%+12.1%0.020%
8/7/2019Capital Advisors Inc. OK335,793$10.52M0.5%+313.3%0.260%
8/7/2019JPMorgan Chase & Co.278,086$8.68M0.0%+18.9%0.215%
8/6/2019Wells Fargo & Company MN174,386$5.46M0.0%-2.2%0.135%
8/6/2019New Mexico Educational Retirement Board21,700$0.68M0.0%-14.2%0.017%
8/2/2019Chicago Equity Partners LLC50,350$1.58M0.1%-0.9%0.039%
8/2/2019Swiss National Bank233,100$7.30M0.0%+2.1%0.180%
8/2/2019Comerica Bank73,896$2.39M0.0%-7.4%0.057%
8/2/2019Envestnet Asset Management Inc.25,258$0.79M0.0%+12.3%0.020%
8/1/2019Kavar Capital Partners LLC1,800$56K0.0%N/A0.001%
8/1/2019Keybank National Association OH69,487$2.18M0.0%-10.4%0.054%
8/1/2019Westpac Banking Corp94,481$2.96M0.0%N/A0.073%
8/1/2019Charter Trust Co.8,001$0.25M0.0%N/A0.006%
7/31/2019Municipal Employees Retirement System of Michigan23,170$0.73M0.1%+1.5%0.018%
7/30/2019Aperio Group LLC48,644$1.52M0.0%-5.6%0.038%
7/30/2019AGF Investments LLC9,360$0.29M0.1%+34.5%0.007%
7/30/2019BNP Paribas Arbitrage SA15,687$0.49M0.0%-70.4%0.012%
7/30/2019Fiduciary Financial Services of The Southwest Inc. TX27,851$0.87M0.2%-1.4%0.022%
7/30/2019First Trust Advisors LP61,435$1.92M0.0%+158.3%0.048%
7/29/2019Los Angeles Capital Management & Equity Research Inc.22,505$0.71M0.0%+4.7%0.017%
6/30/2019SG Americas Securities LLC73,978$2.32M0.0%+91.2%0.057%
6/30/2019Sumitomo Mitsui Trust Holdings Inc.149,771$4.69M0.0%+84.0%0.116%
6/30/2019State Treasurer State of Michigan38,200$1.20M0.0%-14.5%0.030%
6/30/2019Virginia Retirement Systems ET AL32,800$1.03M0.0%+1.5%0.025%
6/30/2019Steward Partners Investment Advisory LLC1,500$46K0.0%N/A0.001%
6/30/2019Strs Ohio190,329$5.96M0.0%-2.4%0.147%
6/30/2019Arizona State Retirement System93,781$2.94M0.0%+4.2%0.073%
6/30/2019Texas Yale Capital Corp.15,868$0.50M0.0%-50.0%0.012%
6/30/2019Daiwa Securities Group Inc.22,200$0.70M0.0%+8.3%0.017%
6/30/2019State of Alaska Department of Revenue49,742$1.56M0.0%+22.2%0.038%
6/30/2019Resolution Capital Ltd3,213,872$100.66M3.3%-1.8%2.487%
6/30/2019Commonwealth Equity Services LLC10,516$0.33M0.0%-13.9%0.008%
6/30/2019Presima Inc.51,200$1.60M0.3%+18.8%0.040%
6/30/2019Fox Run Management L.L.C.9,869$0.31M0.2%N/A0.008%
6/30/2019Taylor Frigon Capital Management LLC28,448$0.89M0.6%-3.0%0.022%
6/30/2019Gateway Investment Advisers LLC351,242$11M0.1%+0.4%0.272%
6/30/2019Oregon Public Employees Retirement Fund50,628$1.59M0.0%+2.7%0.039%
6/30/2019Louisiana State Employees Retirement System33,000$1.08M0.1%-1.8%0.026%
(Data available from 1/1/2016 forward)
This page was last updated on 10/19/2019 by MarketBeat.com Staff

Enter your email address below to receive a concise daily summary of analysts' upgrades, downgrades and new coverage with MarketBeat.com's FREE daily email newsletter.

Yahoo Gemini Pixel